Weather at Ponoka (Hospital & Care Centre) Heliport

Public forecast

Using degrees Celsius for public forecast. Weather courtesy of forecast.io.

Closest aviation weather report (METAR) to Ponoka (Hospital & Care Centre) Heliport

Closest report is Red Deer Regional Airport, 32.2 nm (59.6 km) SSW. Retrieved 2021/02/27 03:00 UTC (22 minutes ago):

CYQF 270300Z AUTO 07006KT 9SM BKN110 OVC140 M15/M18 A2976 RMK SLP147

Closest aviation forecast (TAF) to Ponoka (Hospital & Care Centre) Heliport

Closest forecast is Red Deer Regional Airport, 32.2 nm (59.6 km) SSW. Retrieved 2021-02-27 00:39 UTC (3 hours ago):

TAF CYQF 262338Z 2700/2712 01006KT P6SM SCT040 BKN120 TEMPO 2700/2708 P6SM -SN BKN040 BKN120 BECMG 2701/2703 06006KT FM270800 VRB03KT P6SM SCT040 SCT120 RMK FCST BASED ON AUTO OBS NXT FCST BY 270600Z